sensor_id;sensor_type;location;lat;lon;timestamp;temperature;humidity
39983;DHT22;25670;44.782;10.356;2023-10-31T00:01:13;18.40;31.00
39983;DHT22;25670;44.782;10.356;2023-10-31T00:03:39;18.60;24.80
39983;DHT22;25670;44.782;10.356;2023-10-31T00:06:06;18.70;19.50
39983;DHT22;25670;44.782;10.356;2023-10-31T00:08:32;18.70;20.70
39983;DHT22;25670;44.782;10.356;2023-10-31T00:10:58;18.60;36.70
39983;DHT22;25670;44.782;10.356;2023-10-31T00:13:24;18.60;34.40
39983;DHT22;25670;44.782;10.356;2023-10-31T00:15:50;18.50;38.10
39983;DHT22;25670;44.782;10.356;2023-10-31T00:18:16;18.50;33.50
39983;DHT22;25670;44.782;10.356;2023-10-31T00:20:42;18.60;18.50
39983;DHT22;25670;44.782;10.356;2023-10-31T00:23:08;18.50;24.50
39983;DHT22;25670;44.782;10.356;2023-10-31T00:25:34;18.50;23.70
39983;DHT22;25670;44.782;10.356;2023-10-31T00:28:00;18.40;23.30
39983;DHT22;25670;44.782;10.356;2023-10-31T00:30:26;18.50;8.30
39983;DHT22;25670;44.782;10.356;2023-10-31T00:32:53;18.50;20.10
39983;DHT22;25670;44.782;10.356;2023-10-31T00:35:19;18.50;4.00
39983;DHT22;25670;44.782;10.356;2023-10-31T00:37:45;18.50;1.00
39983;DHT22;25670;44.782;10.356;2023-10-31T00:40:11;18.60;1.00
39983;DHT22;25670;44.782;10.356;2023-10-31T00:42:38;18.60;1.00
39983;DHT22;25670;44.782;10.356;2023-10-31T00:45:04;18.60;1.00
39983;DHT22;25670;44.782;10.356;2023-10-31T00:47:30;18.60;1.00
39983;DHT22;25670;44.782;10.356;2023-10-31T00:49:56;18.60;1.00
39983;DHT22;25670;44.782;10.356;2023-10-31T00:52:24;18.50;1.00
39983;DHT22;25670;44.782;10.356;2023-10-31T00:54:50;18.40;1.00
39983;DHT22;25670;44.782;10.356;2023-10-31T00:57:16;18.20;1.00
39983;DHT22;25670;44.782;10.356;2023-10-31T00:59:42;18.30;1.00
39983;DHT22;25670;44.782;10.356;2023-10-31T01:02:08;18.20;1.00
39983;DHT22;25670;44.782;10.356;2023-10-31T01:04:35;18.30;1.00
39983;DHT22;25670;44.782;10.356;2023-10-31T01:07:03;18.20;1.00
39983;DHT22;25670;44.782;10.356;2023-10-31T01:09:29;18.20;1.00
39983;DHT22;25670;44.782;10.356;2023-10-31T01:11:55;18.00;1.50
39983;DHT22;25670;44.782;10.356;2023-10-31T01:14:21;17.80;24.00
39983;DHT22;25670;44.782;10.356;2023-10-31T01:16:47;17.60;36.80
39983;DHT22;25670;44.782;10.356;2023-10-31T01:19:13;17.30;67.00
39983;DHT22;25670;44.782;10.356;2023-10-31T01:21:39;17.10;85.60
39983;DHT22;25670;44.782;10.356;2023-10-31T01:24:06;16.90;99.90
39983;DHT22;25670;44.782;10.356;2023-10-31T01:26:32;16.60;99.90
39983;DHT22;25670;44.782;10.356;2023-10-31T01:28:59;16.30;99.90
39983;DHT22;25670;44.782;10.356;2023-10-31T01:31:25;16.30;99.90
39983;DHT22;25670;44.782;10.356;2023-10-31T01:33:51;16.20;99.90
39983;DHT22;25670;44.782;10.356;2023-10-31T01:36:17;16.10;99.90
39983;DHT22;25670;44.782;10.356;2023-10-31T01:38:44;16.00;99.90
39983;DHT22;25670;44.782;10.356;2023-10-31T01:41:12;15.80;99.90
39983;DHT22;25670;44.782;10.356;2023-10-31T01:43:38;15.60;99.90
39983;DHT22;25670;44.782;10.356;2023-10-31T01:46:04;15.50;99.90
39983;DHT22;25670;44.782;10.356;2023-10-31T01:48:31;15.30;99.90
39983;DHT22;25670;44.782;10.356;2023-10-31T01:50:58;15.20;99.90
39983;DHT22;25670;44.782;10.356;2023-10-31T01:53:27;15.20;99.90
39983;DHT22;25670;44.782;10.356;2023-10-31T01:55:54;15.10;99.90
39983;DHT22;25670;44.782;10.356;2023-10-31T01:58:23;15.00;99.90
39983;DHT22;25670;44.782;10.356;2023-10-31T02:00:51;14.90;99.90
39983;DHT22;25670;44.782;10.356;2023-10-31T02:03:17;14.90;99.90
39983;DHT22;25670;44.782;10.356;2023-10-31T02:05:44;14.80;99.90
39983;DHT22;25670;44.782;10.356;2023-10-31T02:08:10;14.70;99.90
39983;DHT22;25670;44.782;10.356;2023-10-31T02:10:37;14.70;99.90
39983;DHT22;25670;44.782;10.356;2023-10-31T02:13:13;14.60;99.90
39983;DHT22;25670;44.782;10.356;2023-10-31T02:15:39;14.50;99.90
39983;DHT22;25670;44.782;10.356;2023-10-31T02:18:05;14.40;99.90
39983;DHT22;25670;44.782;10.356;2023-10-31T02:20:32;14.30;99.90
39983;DHT22;25670;44.782;10.356;2023-10-31T02:22:58;14.30;99.90
39983;DHT22;25670;44.782;10.356;2023-10-31T02:25:24;14.10;99.90
39983;DHT22;25670;44.782;10.356;2023-10-31T02:27:51;14.10;99.90
39983;DHT22;25670;44.782;10.356;2023-10-31T02:30:23;14.00;99.90
39983;DHT22;25670;44.782;10.356;2023-10-31T02:32:49;14.00;99.90
39983;DHT22;25670;44.782;10.356;2023-10-31T02:35:16;14.10;99.90
39983;DHT22;25670;44.782;10.356;2023-10-31T02:37:42;14.30;99.90
39983;DHT22;25670;44.782;10.356;2023-10-31T02:40:08;14.20;99.90
39983;DHT22;25670;44.782;10.356;2023-10-31T02:42:35;14.10;99.90
39983;DHT22;25670;44.782;10.356;2023-10-31T02:45:01;14.10;99.90
39983;DHT22;25670;44.782;10.356;2023-10-31T02:47:28;14.00;99.90
39983;DHT22;25670;44.782;10.356;2023-10-31T02:49:54;14.00;99.90
39983;DHT22;25670;44.782;10.356;2023-10-31T02:52:20;14.00;99.90
39983;DHT22;25670;44.782;10.356;2023-10-31T02:54:46;14.00;99.90
39983;DHT22;25670;44.782;10.356;2023-10-31T02:57:12;14.20;99.90
39983;DHT22;25670;44.782;10.356;2023-10-31T02:59:38;14.50;99.90
39983;DHT22;25670;44.782;10.356;2023-10-31T03:02:04;14.70;99.90
39983;DHT22;25670;44.782;10.356;2023-10-31T03:04:30;14.80;99.90
39983;DHT22;25670;44.782;10.356;2023-10-31T03:06:56;14.80;99.90
39983;DHT22;25670;44.782;10.356;2023-10-31T03:09:23;14.90;99.90
39983;DHT22;25670;44.782;10.356;2023-10-31T03:11:49;15.10;99.90
39983;DHT22;25670;44.782;10.356;2023-10-31T03:14:15;15.20;99.90
39983;DHT22;25670;44.782;10.356;2023-10-31T03:16:41;15.30;99.90
39983;DHT22;25670;44.782;10.356;2023-10-31T03:19:07;15.40;99.90
39983;DHT22;25670;44.782;10.356;2023-10-31T03:21:33;15.50;99.90
39983;DHT22;25670;44.782;10.356;2023-10-31T03:23:59;15.50;99.90
39983;DHT22;25670;44.782;10.356;2023-10-31T03:26:25;15.60;99.90
39983;DHT22;25670;44.782;10.356;2023-10-31T03:28:52;15.50;99.90
39983;DHT22;25670;44.782;10.356;2023-10-31T03:31:23;15.60;99.90
39983;DHT22;25670;44.782;10.356;2023-10-31T03:33:49;15.60;99.90
39983;DHT22;25670;44.782;10.356;2023-10-31T03:36:15;15.60;99.90
39983;DHT22;25670;44.782;10.356;2023-10-31T03:38:41;15.40;99.90
39983;DHT22;25670;44.782;10.356;2023-10-31T03:41:07;15.20;99.90
39983;DHT22;25670;44.782;10.356;2023-10-31T03:43:34;15.30;99.90
39983;DHT22;25670;44.782;10.356;2023-10-31T03:46:00;16.00;99.90
39983;DHT22;25670;44.782;10.356;2023-10-31T03:48:26;16.30;99.90
39983;DHT22;25670;44.782;10.356;2023-10-31T03:50:52;16.30;96.90
39983;DHT22;25670;44.782;10.356;2023-10-31T03:53:18;16.40;99.40
39983;DHT22;25670;44.782;10.356;2023-10-31T03:55:44;16.30;99.90
39983;DHT22;25670;44.782;10.356;2023-10-31T03:58:10;16.30;97.80
39983;DHT22;25670;44.782;10.356;2023-10-31T04:00:38;16.30;94.60
39983;DHT22;25670;44.782;10.356;2023-10-31T04:03:04;16.30;90.70
39983;DHT22;25670;44.782;10.356;2023-10-31T04:05:30;16.50;83.70
39983;DHT22;25670;44.782;10.356;2023-10-31T04:07:56;16.30;99.90
39983;DHT22;25670;44.782;10.356;2023-10-31T04:10:22;16.10;99.90
39983;DHT22;25670;44.782;10.356;2023-10-31T04:12:49;15.80;99.90
39983;DHT22;25670;44.782;10.356;2023-10-31T04:15:15;15.60;99.90
39983;DHT22;25670;44.782;10.356;2023-10-31T04:17:41;15.50;99.90
39983;DHT22;25670;44.782;10.356;2023-10-31T04:20:07;16.30;11.40
39983;DHT22;25670;44.782;10.356;2023-10-31T04:22:33;14.80;74.20
39983;DHT22;25670;44.782;10.356;2023-10-31T04:24:59;16.70;4.20
39983;DHT22;25670;44.782;10.356;2023-10-31T04:27:25;17.00;1.00
39983;DHT22;25670;44.782;10.356;2023-10-31T04:29:51;17.00;2.00
39983;DHT22;25670;44.782;10.356;2023-10-31T04:32:17;17.00;1.00
39983;DHT22;25670;44.782;10.356;2023-10-31T04:34:43;17.10;1.00
39983;DHT22;25670;44.782;10.356;2023-10-31T04:37:09;17.20;1.00
39983;DHT22;25670;44.782;10.356;2023-10-31T04:39:36;17.20;1.00
39983;DHT22;25670;44.782;10.356;2023-10-31T04:42:02;17.40;99.90
39983;DHT22;25670;44.782;10.356;2023-10-31T04:44:28;17.50;99.90
39983;DHT22;25670;44.782;10.356;2023-10-31T04:46:54;17.50;99.90
39983;DHT22;25670;44.782;10.356;2023-10-31T04:49:20;17.50;99.90
39983;DHT22;25670;44.782;10.356;2023-10-31T04:51:46;17.70;99.90
39983;DHT22;25670;44.782;10.356;2023-10-31T04:54:12;17.50;99.90
39983;DHT22;25670;44.782;10.356;2023-10-31T04:56:38;17.30;99.90
39983;DHT22;25670;44.782;10.356;2023-10-31T04:59:04;17.20;1.00
39983;DHT22;25670;44.782;10.356;2023-10-31T05:01:31;17.00;1.00
39983;DHT22;25670;44.782;10.356;2023-10-31T05:03:57;16.80;1.00
39983;DHT22;25670;44.782;10.356;2023-10-31T05:06:23;16.70;1.00
39983;DHT22;25670;44.782;10.356;2023-10-31T05:08:49;16.60;1.00
39983;DHT22;25670;44.782;10.356;2023-10-31T05:11:18;16.60;1.00
39983;DHT22;25670;44.782;10.356;2023-10-31T05:13:47;16.60;1.00
39983;DHT22;25670;44.782;10.356;2023-10-31T05:16:13;16.60;15.00
39983;DHT22;25670;44.782;10.356;2023-10-31T05:18:39;16.60;38.00
39983;DHT22;25670;44.782;10.356;2023-10-31T05:21:05;16.60;51.40
39983;DHT22;25670;44.782;10.356;2023-10-31T05:23:31;16.60;44.50
39983;DHT22;25670;44.782;10.356;2023-10-31T05:25:58;16.60;42.70
39983;DHT22;25670;44.782;10.356;2023-10-31T05:28:24;16.60;51.60
39983;DHT22;25670;44.782;10.356;2023-10-31T05:30:50;16.50;59.60
39983;DHT22;25670;44.782;10.356;2023-10-31T05:33:16;16.60;29.90
39983;DHT22;25670;44.782;10.356;2023-10-31T05:35:42;16.70;9.70
39983;DHT22;25670;44.782;10.356;2023-10-31T05:38:08;16.70;9.50
39983;DHT22;25670;44.782;10.356;2023-10-31T05:40:34;16.70;8.70
39983;DHT22;25670;44.782;10.356;2023-10-31T05:43:03;16.90;1.00
39983;DHT22;25670;44.782;10.356;2023-10-31T05:45:29;16.90;1.00
39983;DHT22;25670;44.782;10.356;2023-10-31T05:47:56;16.90;1.00
39983;DHT22;25670;44.782;10.356;2023-10-31T05:50:22;16.90;99.90
39983;DHT22;25670;44.782;10.356;2023-10-31T05:52:48;16.90;99.90
39983;DHT22;25670;44.782;10.356;2023-10-31T05:55:14;16.90;1.00
39983;DHT22;25670;44.782;10.356;2023-10-31T05:57:40;16.80;1.00
39983;DHT22;25670;44.782;10.356;2023-10-31T06:00:06;16.80;1.00
39983;DHT22;25670;44.782;10.356;2023-10-31T06:02:37;16.70;1.00
39983;DHT22;25670;44.782;10.356;2023-10-31T06:05:04;16.70;1.00
39983;DHT22;25670;44.782;10.356;2023-10-31T06:07:30;16.70;1.00
39983;DHT22;25670;44.782;10.356;2023-10-31T06:09:56;16.70;1.00
39983;DHT22;25670;44.782;10.356;2023-10-31T06:12:22;16.80;1.00
39983;DHT22;25670;44.782;10.356;2023-10-31T06:14:48;16.80;1.00
39983;DHT22;25670;44.782;10.356;2023-10-31T06:17:14;16.80;1.00
39983;DHT22;25670;44.782;10.356;2023-10-31T06:19:40;16.80;1.00
39983;DHT22;25670;44.782;10.356;2023-10-31T06:22:11;16.80;1.00
39983;DHT22;25670;44.782;10.356;2023-10-31T06:24:37;16.70;1.00
39983;DHT22;25670;44.782;10.356;2023-10-31T06:27:04;16.70;1.00
39983;DHT22;25670;44.782;10.356;2023-10-31T06:29:30;16.70;1.00
39983;DHT22;25670;44.782;10.356;2023-10-31T06:31:57;16.60;1.00
39983;DHT22;25670;44.782;10.356;2023-10-31T06:34:23;16.00;1.00
39983;DHT22;25670;44.782;10.356;2023-10-31T06:36:49;15.40;27.90
39983;DHT22;25670;44.782;10.356;2023-10-31T06:39:15;14.90;57.20
39983;DHT22;25670;44.782;10.356;2023-10-31T06:41:41;14.60;80.10
39983;DHT22;25670;44.782;10.356;2023-10-31T06:44:07;14.40;89.80
39983;DHT22;25670;44.782;10.356;2023-10-31T06:46:33;14.10;99.90
39983;DHT22;25670;44.782;10.356;2023-10-31T06:48:59;13.60;99.90
39983;DHT22;25670;44.782;10.356;2023-10-31T06:51:25;13.10;99.90
39983;DHT22;25670;44.782;10.356;2023-10-31T06:53:51;12.70;99.90
39983;DHT22;25670;44.782;10.356;2023-10-31T06:56:17;12.40;99.90
39983;DHT22;25670;44.782;10.356;2023-10-31T06:58:44;12.30;99.90
39983;DHT22;25670;44.782;10.356;2023-10-31T07:01:10;12.30;99.90
39983;DHT22;25670;44.782;10.356;2023-10-31T07:03:37;12.30;99.90
39983;DHT22;25670;44.782;10.356;2023-10-31T07:06:03;12.20;99.90
39983;DHT22;25670;44.782;10.356;2023-10-31T07:08:29;12.10;99.90
39983;DHT22;25670;44.782;10.356;2023-10-31T07:10:55;12.00;99.90
39983;DHT22;25670;44.782;10.356;2023-10-31T07:13:21;11.90;99.90
39983;DHT22;25670;44.782;10.356;2023-10-31T07:15:47;11.80;99.90
39983;DHT22;25670;44.782;10.356;2023-10-31T07:18:13;11.70;99.90
39983;DHT22;25670;44.782;10.356;2023-10-31T07:20:40;11.70;99.90
39983;DHT22;25670;44.782;10.356;2023-10-31T07:23:06;11.60;99.90
39983;DHT22;25670;44.782;10.356;2023-10-31T07:25:32;11.70;99.90
39983;DHT22;25670;44.782;10.356;2023-10-31T07:27:58;11.70;99.90
39983;DHT22;25670;44.782;10.356;2023-10-31T07:30:24;11.70;99.90
39983;DHT22;25670;44.782;10.356;2023-10-31T07:32:50;11.80;99.90
39983;DHT22;25670;44.782;10.356;2023-10-31T07:35:16;11.90;99.90
39983;DHT22;25670;44.782;10.356;2023-10-31T07:37:42;11.90;99.90
39983;DHT22;25670;44.782;10.356;2023-10-31T07:40:08;12.10;99.90
39983;DHT22;25670;44.782;10.356;2023-10-31T07:42:34;12.10;99.90
39983;DHT22;25670;44.782;10.356;2023-10-31T07:45:00;12.30;99.90
39983;DHT22;25670;44.782;10.356;2023-10-31T07:47:26;12.40;99.90
39983;DHT22;25670;44.782;10.356;2023-10-31T07:49:52;12.40;99.90
39983;DHT22;25670;44.782;10.356;2023-10-31T07:52:19;12.60;99.90
39983;DHT22;25670;44.782;10.356;2023-10-31T07:54:45;12.70;99.90
39983;DHT22;25670;44.782;10.356;2023-10-31T07:57:11;12.80;99.90
39983;DHT22;25670;44.782;10.356;2023-10-31T07:59:37;12.90;99.90
39983;DHT22;25670;44.782;10.356;2023-10-31T08:02:03;13.00;99.90
39983;DHT22;25670;44.782;10.356;2023-10-31T08:04:29;13.10;93.50
39983;DHT22;25670;44.782;10.356;2023-10-31T08:06:58;13.20;66.00
39983;DHT22;25670;44.782;10.356;2023-10-31T08:09:24;13.40;58.10
39983;DHT22;25670;44.782;10.356;2023-10-31T08:11:50;13.60;63.30
39983;DHT22;25670;44.782;10.356;2023-10-31T08:14:16;13.70;42.40
39983;DHT22;25670;44.782;10.356;2023-10-31T08:16:42;13.80;38.50
39983;DHT22;25670;44.782;10.356;2023-10-31T08:19:08;13.80;29.20
39983;DHT22;25670;44.782;10.356;2023-10-31T08:21:34;14.00;8.50
39983;DHT22;25670;44.782;10.356;2023-10-31T08:24:01;14.20;1.00
39983;DHT22;25670;44.782;10.356;2023-10-31T08:26:28;14.40;1.00
39983;DHT22;25670;44.782;10.356;2023-10-31T08:28:54;14.50;1.00
39983;DHT22;25670;44.782;10.356;2023-10-31T08:31:20;14.50;1.00
39983;DHT22;25670;44.782;10.356;2023-10-31T08:33:46;14.50;2.70
39983;DHT22;25670;44.782;10.356;2023-10-31T08:36:12;14.30;13.20
39983;DHT22;25670;44.782;10.356;2023-10-31T08:38:38;14.10;23.00
39983;DHT22;25670;44.782;10.356;2023-10-31T08:41:04;14.10;5.80
39983;DHT22;25670;44.782;10.356;2023-10-31T08:43:30;14.20;30.70
39983;DHT22;25670;44.782;10.356;2023-10-31T08:45:56;14.30;1.00
39983;DHT22;25670;44.782;10.356;2023-10-31T08:48:22;14.40;1.00
39983;DHT22;25670;44.782;10.356;2023-10-31T08:50:48;14.50;1.00
39983;DHT22;25670;44.782;10.356;2023-10-31T08:53:14;14.60;1.00
39983;DHT22;25670;44.782;10.356;2023-10-31T08:55:40;14.70;1.00
39983;DHT22;25670;44.782;10.356;2023-10-31T08:58:10;14.90;1.00
39983;DHT22;25670;44.782;10.356;2023-10-31T09:00:36;14.90;1.00
39983;DHT22;25670;44.782;10.356;2023-10-31T09:03:02;14.90;1.00
39983;DHT22;25670;44.782;10.356;2023-10-31T09:05:28;14.90;1.00
39983;DHT22;25670;44.782;10.356;2023-10-31T09:07:54;15.00;1.00
39983;DHT22;25670;44.782;10.356;2023-10-31T09:10:21;14.90;1.00
39983;DHT22;25670;44.782;10.356;2023-10-31T09:12:47;14.90;99.90
39983;DHT22;25670;44.782;10.356;2023-10-31T09:15:13;14.90;1.00
39983;DHT22;25670;44.782;10.356;2023-10-31T09:17:39;14.90;99.90
39983;DHT22;25670;44.782;10.356;2023-10-31T09:20:05;14.90;1.00
39983;DHT22;25670;44.782;10.356;2023-10-31T09:22:32;14.90;1.00
39983;DHT22;25670;44.782;10.356;2023-10-31T09:24:58;15.00;1.00
39983;DHT22;25670;44.782;10.356;2023-10-31T09:27:24;15.00;1.00
39983;DHT22;25670;44.782;10.356;2023-10-31T09:29:50;15.00;1.00
39983;DHT22;25670;44.782;10.356;2023-10-31T09:32:17;15.10;99.90
39983;DHT22;25670;44.782;10.356;2023-10-31T09:34:43;17.50;99.90
39983;DHT22;25670;44.782;10.356;2023-10-31T09:37:09;15.10;99.90
39983;DHT22;25670;44.782;10.356;2023-10-31T09:39:35;15.10;99.90
39983;DHT22;25670;44.782;10.356;2023-10-31T09:42:01;15.10;99.90
39983;DHT22;25670;44.782;10.356;2023-10-31T09:44:28;15.20;99.90
39983;DHT22;25670;44.782;10.356;2023-10-31T09:46:54;15.20;99.90
39983;DHT22;25670;44.782;10.356;2023-10-31T09:49:20;15.20;99.90
39983;DHT22;25670;44.782;10.356;2023-10-31T09:51:47;15.20;1.00
39983;DHT22;25670;44.782;10.356;2023-10-31T09:54:14;15.20;99.90
39983;DHT22;25670;44.782;10.356;2023-10-31T09:56:42;15.30;99.90
39983;DHT22;25670;44.782;10.356;2023-10-31T09:59:09;15.40;99.90
39983;DHT22;25670;44.782;10.356;2023-10-31T10:01:35;15.50;1.00
39983;DHT22;25670;44.782;10.356;2023-10-31T10:04:01;15.70;99.90
39983;DHT22;25670;44.782;10.356;2023-10-31T10:06:27;15.90;99.90
39983;DHT22;25670;44.782;10.356;2023-10-31T10:08:57;16.10;99.90
39983;DHT22;25670;44.782;10.356;2023-10-31T10:11:23;16.10;99.90
39983;DHT22;25670;44.782;10.356;2023-10-31T10:13:53;16.50;99.90
39983;DHT22;25670;44.782;10.356;2023-10-31T10:16:31;16.50;1.00
39983;DHT22;25670;44.782;10.356;2023-10-31T10:18:57;16.70;1.00
39983;DHT22;25670;44.782;10.356;2023-10-31T10:21:49;16.90;99.90
39983;DHT22;25670;44.782;10.356;2023-10-31T10:24:16;16.90;99.90
39983;DHT22;25670;44.782;10.356;2023-10-31T10:26:42;17.00;99.90
39983;DHT22;25670;44.782;10.356;2023-10-31T10:29:08;17.10;1.00
39983;DHT22;25670;44.782;10.356;2023-10-31T10:31:34;17.30;99.90
39983;DHT22;25670;44.782;10.356;2023-10-31T10:34:01;17.40;99.90
39983;DHT22;25670;44.782;10.356;2023-10-31T10:36:27;17.50;99.90
39983;DHT22;25670;44.782;10.356;2023-10-31T10:38:55;17.60;99.90
39983;DHT22;25670;44.782;10.356;2023-10-31T10:41:22;17.70;99.90
39983;DHT22;25670;44.782;10.356;2023-10-31T10:43:53;17.70;79.00
39983;DHT22;25670;44.782;10.356;2023-10-31T10:46:21;17.70;1.00
39983;DHT22;25670;44.782;10.356;2023-10-31T10:48:49;17.80;1.00
39983;DHT22;25670;44.782;10.356;2023-10-31T10:54:01;17.80;1.00
39983;DHT22;25670;44.782;10.356;2023-10-31T10:56:33;17.80;99.90
39983;DHT22;25670;44.782;10.356;2023-10-31T11:01:26;18.00;1.00
39983;DHT22;25670;44.782;10.356;2023-10-31T11:03:54;18.10;9.70
39983;DHT22;25670;44.782;10.356;2023-10-31T11:06:21;18.10;1.00
39983;DHT22;25670;44.782;10.356;2023-10-31T11:08:47;18.30;99.90
39983;DHT22;25670;44.782;10.356;2023-10-31T11:11:13;18.40;99.90
39983;DHT22;25670;44.782;10.356;2023-10-31T11:13:43;18.50;1.00
39983;DHT22;25670;44.782;10.356;2023-10-31T11:16:11;18.50;99.90
39983;DHT22;25670;44.782;10.356;2023-10-31T11:18:39;18.60;99.90
39983;DHT22;25670;44.782;10.356;2023-10-31T11:21:05;18.70;1.00
39983;DHT22;25670;44.782;10.356;2023-10-31T11:23:31;18.80;99.90
39983;DHT22;25670;44.782;10.356;2023-10-31T11:25:57;18.90;99.90
39983;DHT22;25670;44.782;10.356;2023-10-31T11:28:24;18.90;99.90
39983;DHT22;25670;44.782;10.356;2023-10-31T11:30:51;19.00;99.90
39983;DHT22;25670;44.782;10.356;2023-10-31T11:33:22;19.00;99.90
39983;DHT22;25670;44.782;10.356;2023-10-31T11:35:59;19.10;1.00
39983;DHT22;25670;44.782;10.356;2023-10-31T11:38:34;19.10;99.90
39983;DHT22;25670;44.782;10.356;2023-10-31T11:41:01;19.20;13.60
39983;DHT22;25670;44.782;10.356;2023-10-31T11:43:49;19.20;99.90
39983;DHT22;25670;44.782;10.356;2023-10-31T11:46:19;19.30;99.90
39983;DHT22;25670;44.782;10.356;2023-10-31T11:48:47;19.50;99.90
39983;DHT22;25670;44.782;10.356;2023-10-31T11:51:13;19.60;1.00
39983;DHT22;25670;44.782;10.356;2023-10-31T11:53:39;19.60;99.90
39983;DHT22;25670;44.782;10.356;2023-10-31T11:56:06;19.60;1.00
39983;DHT22;25670;44.782;10.356;2023-10-31T11:58:32;19.70;99.90
39983;DHT22;25670;44.782;10.356;2023-10-31T12:01:01;19.70;99.90
39983;DHT22;25670;44.782;10.356;2023-10-31T12:03:28;19.70;99.90
39983;DHT22;25670;44.782;10.356;2023-10-31T12:06:02;19.80;99.90
39983;DHT22;25670;44.782;10.356;2023-10-31T12:08:29;20.00;99.90
39983;DHT22;25670;44.782;10.356;2023-10-31T12:13:33;20.80;11.90
39983;DHT22;25670;44.782;10.356;2023-10-31T12:16:00;21.40;99.90
39983;DHT22;25670;44.782;10.356;2023-10-31T12:18:28;21.80;99.90
39983;DHT22;25670;44.782;10.356;2023-10-31T12:20:55;22.30;2.40
39983;DHT22;25670;44.782;10.356;2023-10-31T12:23:21;22.30;99.90
39983;DHT22;25670;44.782;10.356;2023-10-31T12:25:47;22.60;99.90
39983;DHT22;25670;44.782;10.356;2023-10-31T12:28:17;22.70;99.90
39983;DHT22;25670;44.782;10.356;2023-10-31T12:30:44;22.60;1.00
39983;DHT22;25670;44.782;10.356;2023-10-31T12:33:11;22.80;18.40
39983;DHT22;25670;44.782;10.356;2023-10-31T12:35:37;23.20;1.00
39983;DHT22;25670;44.782;10.356;2023-10-31T12:38:03;23.10;87.40
39983;DHT22;25670;44.782;10.356;2023-10-31T12:40:30;23.30;79.70
39983;DHT22;25670;44.782;10.356;2023-10-31T12:42:56;23.40;97.10
39983;DHT22;25670;44.782;10.356;2023-10-31T12:45:23;23.30;1.00
39983;DHT22;25670;44.782;10.356;2023-10-31T12:48:00;23.30;1.00
39983;DHT22;25670;44.782;10.356;2023-10-31T12:50:27;23.30;8.00
39983;DHT22;25670;44.782;10.356;2023-10-31T12:52:53;23.30;1.00
39983;DHT22;25670;44.782;10.356;2023-10-31T12:55:26;23.10;1.00
39983;DHT22;25670;44.782;10.356;2023-10-31T12:57:53;23.20;1.00
39983;DHT22;25670;44.782;10.356;2023-10-31T13:00:19;23.10;1.70
39983;DHT22;25670;44.782;10.356;2023-10-31T13:02:52;23.20;99.90
39983;DHT22;25670;44.782;10.356;2023-10-31T13:05:25;23.00;99.90
39983;DHT22;25670;44.782;10.356;2023-10-31T13:07:52;23.30;99.90
39983;DHT22;25670;44.782;10.356;2023-10-31T13:10:18;23.80;1.00
39983;DHT22;25670;44.782;10.356;2023-10-31T13:12:45;24.30;99.90
39983;DHT22;25670;44.782;10.356;2023-10-31T13:15:15;24.10;99.90
39983;DHT22;25670;44.782;10.356;2023-10-31T13:17:42;23.90;99.90
39983;DHT22;25670;44.782;10.356;2023-10-31T13:20:12;23.80;99.90
39983;DHT22;25670;44.782;10.356;2023-10-31T13:22:38;23.60;99.90
39983;DHT22;25670;44.782;10.356;2023-10-31T13:25:05;23.40;1.00
39983;DHT22;25670;44.782;10.356;2023-10-31T13:27:33;23.50;1.00
39983;DHT22;25670;44.782;10.356;2023-10-31T13:30:01;23.80;1.00
39983;DHT22;25670;44.782;10.356;2023-10-31T13:32:27;23.50;99.90
39983;DHT22;25670;44.782;10.356;2023-10-31T13:34:53;23.50;99.90
39983;DHT22;25670;44.782;10.356;2023-10-31T13:37:19;24.00;1.00
39983;DHT22;25670;44.782;10.356;2023-10-31T13:39:45;24.00;1.00
39983;DHT22;25670;44.782;10.356;2023-10-31T13:42:11;24.40;1.00
39983;DHT22;25670;44.782;10.356;2023-10-31T13:44:37;24.70;1.00
39983;DHT22;25670;44.782;10.356;2023-10-31T13:47:03;24.80;99.90
39983;DHT22;25670;44.782;10.356;2023-10-31T13:49:30;24.80;99.90
39983;DHT22;25670;44.782;10.356;2023-10-31T13:51:56;24.60;99.90
39983;DHT22;25670;44.782;10.356;2023-10-31T13:54:22;24.30;99.90
39983;DHT22;25670;44.782;10.356;2023-10-31T13:56:48;24.20;99.90
39983;DHT22;25670;44.782;10.356;2023-10-31T13:59:14;24.60;99.90
39983;DHT22;25670;44.782;10.356;2023-10-31T14:01:40;24.80;99.90
39983;DHT22;25670;44.782;10.356;2023-10-31T14:04:07;25.20;99.90
39983;DHT22;25670;44.782;10.356;2023-10-31T14:06:33;24.90;99.90
39983;DHT22;25670;44.782;10.356;2023-10-31T14:09:00;22.30;99.90
39983;DHT22;25670;44.782;10.356;2023-10-31T14:11:27;24.40;99.90
39983;DHT22;25670;44.782;10.356;2023-10-31T14:13:54;24.90;99.90
39983;DHT22;25670;44.782;10.356;2023-10-31T14:16:20;24.70;99.90
39983;DHT22;25670;44.782;10.356;2023-10-31T14:18:46;24.50;99.90
39983;DHT22;25670;44.782;10.356;2023-10-31T14:21:13;24.20;99.90
39983;DHT22;25670;44.782;10.356;2023-10-31T14:23:39;24.00;99.90
39983;DHT22;25670;44.782;10.356;2023-10-31T14:26:05;24.20;99.90
39983;DHT22;25670;44.782;10.356;2023-10-31T14:28:31;24.10;99.90
39983;DHT22;25670;44.782;10.356;2023-10-31T14:30:57;24.10;99.90
39983;DHT22;25670;44.782;10.356;2023-10-31T14:33:24;24.20;99.90
39983;DHT22;25670;44.782;10.356;2023-10-31T14:35:50;23.90;99.90
39983;DHT22;25670;44.782;10.356;2023-10-31T14:38:16;23.60;99.90
39983;DHT22;25670;44.782;10.356;2023-10-31T14:40:42;23.60;99.90
39983;DHT22;25670;44.782;10.356;2023-10-31T14:43:07;23.70;1.00
39983;DHT22;25670;44.782;10.356;2023-10-31T14:45:34;23.80;99.90
39983;DHT22;25670;44.782;10.356;2023-10-31T14:48:00;23.80;99.90
39983;DHT22;25670;44.782;10.356;2023-10-31T14:50:26;23.90;99.90
39983;DHT22;25670;44.782;10.356;2023-10-31T14:52:52;24.10;99.90
39983;DHT22;25670;44.782;10.356;2023-10-31T14:55:18;24.00;99.90
39983;DHT22;25670;44.782;10.356;2023-10-31T14:57:44;24.10;99.90
39983;DHT22;25670;44.782;10.356;2023-10-31T15:00:10;24.10;99.90
39983;DHT22;25670;44.782;10.356;2023-10-31T15:02:39;24.00;99.90
39983;DHT22;25670;44.782;10.356;2023-10-31T15:05:06;24.10;99.90
39983;DHT22;25670;44.782;10.356;2023-10-31T15:07:32;23.90;99.90
39983;DHT22;25670;44.782;10.356;2023-10-31T15:09:58;23.50;99.90
39983;DHT22;25670;44.782;10.356;2023-10-31T15:12:24;23.50;99.90
39983;DHT22;25670;44.782;10.356;2023-10-31T15:14:50;23.50;99.90
39983;DHT22;25670;44.782;10.356;2023-10-31T15:17:16;23.20;99.90
39983;DHT22;25670;44.782;10.356;2023-10-31T15:19:42;23.30;99.90
39983;DHT22;25670;44.782;10.356;2023-10-31T15:22:08;23.40;99.90
39983;DHT22;25670;44.782;10.356;2023-10-31T15:24:34;23.10;99.90